Enter the Airport ICAO Code

Search by Airport or City

Current Weather

LEAS | Asturias Airport (Oviedo Airport)

Oviedo, Asturias, Spain

Last Update 32 Minutes Ago

Mostly Cloudy Sky

Temperature of 09 ēC

Light to Moderate Winds from West

Temperature

09 ēC

Dew Point Temperature

05 ēC

Relative Humidity

76.07 %

Wind Direction

West (250ē, Without Significant Variations)

Wind Velocity

13 km/h (07 kt)

Gusts

None

Visibility

Greater than 10 Kilometers

Sea Level Pressure

1021 hPa (Hectopascals)

Layers of Clouds

60% to 90% of Sky Covered from 1402 mts (4600 ft) Above Ground Level.

METAR LEAS 022230Z 25007KT 9999 BKN046 09/05 Q1021 NOSIG

Weather Forecast

LEAS | Asturias Airport (Oviedo Airport)

Oviedo, Asturias, Spain

Forecast valid for the next 22 Hours

From now on it is expected:

Partly Cloudy Sky

Light to Moderate Winds from SouthWest

In 12 hours it is expected the begining of 10 hours with intermittent periods of:

Moderate to Strong Winds from SouthWest with Gusts

In 19 hours it is expected the begining of 3 hours with intermittent periods of:

Rain

In 20 hours it is expected the begining of 2 hours with intermittent periods of:

Strong Winds from West with Gusts

Maximum Temperature

12 ēC in 16 Hours

Minimum Temperature

07 ēC in 8 Hours

TAF LEAS 022000Z 0221/0321 23007KT 9999 SCT050 TX12/0315Z TN07/0307Z TEMPO 0311/0321 24018G30KT TEMPO 0318/0321 3000 RA PROB40 TEMPO 0319/0321 29023G43KT